createdAt,value
2019-03-15T00:00:16.291Z,3.50
2019-03-15T00:02:45.065Z,5.37
2019-03-15T00:05:13.897Z,3.67
2019-03-15T00:07:45.078Z,4.93
2019-03-15T00:10:14.310Z,4.07
2019-03-15T00:12:42.952Z,3.37
2019-03-15T00:15:11.866Z,4.20
2019-03-15T00:17:40.625Z,3.87
2019-03-15T00:20:09.890Z,4.97
2019-03-15T00:22:38.675Z,4.20
2019-03-15T00:25:07.562Z,4.03
2019-03-15T00:27:36.300Z,3.73
2019-03-15T00:30:08.206Z,4.70
2019-03-15T00:32:36.899Z,3.93
2019-03-15T00:35:07.204Z,4.20
2019-03-15T00:37:36.019Z,4.30
2019-03-15T00:40:07.741Z,4.83
2019-03-15T00:42:36.486Z,3.27
2019-03-15T00:45:08.326Z,4.13
2019-03-15T00:47:37.366Z,3.63
2019-03-15T00:50:08.744Z,4.10
2019-03-15T00:52:37.702Z,3.77
2019-03-15T00:55:07.838Z,3.67
2019-03-15T00:57:36.559Z,4.53
2019-03-15T01:00:08.123Z,4.40
2019-03-15T01:02:36.873Z,3.90
2019-03-15T01:05:06.526Z,3.50
2019-03-15T01:07:35.306Z,5.37
2019-03-15T01:10:05.288Z,4.53
2019-03-15T01:12:35.064Z,6.00
2019-03-15T01:15:07.553Z,3.10
2019-03-15T01:17:36.241Z,3.80
2019-03-15T01:20:07.842Z,5.10
2019-03-15T01:22:36.721Z,3.13
2019-03-15T01:25:07.844Z,5.67
2019-03-15T01:27:36.700Z,3.83
2019-03-15T01:30:08.630Z,4.00
2019-03-15T01:32:37.335Z,4.60
2019-03-15T01:35:07.747Z,4.63
2019-03-15T01:37:36.479Z,4.23
2019-03-15T01:40:07.398Z,3.63
2019-03-15T01:42:36.182Z,4.27
2019-03-15T01:45:06.262Z,3.90
2019-03-15T01:47:34.991Z,3.30
2019-03-15T01:50:04.964Z,3.53
2019-03-15T01:52:33.704Z,3.70
2019-03-15T01:55:02.385Z,4.40
2019-03-15T01:57:31.146Z,3.83
2019-03-15T01:59:59.943Z,4.60
2019-03-15T02:02:28.625Z,5.80
2019-03-15T02:04:57.688Z,4.37
2019-03-15T02:07:26.729Z,4.70
2019-03-15T02:09:55.487Z,7.10
2019-03-15T02:12:24.235Z,5.63
2019-03-15T02:14:55.201Z,5.40
2019-03-15T02:17:23.862Z,5.20
2019-03-15T02:19:52.529Z,4.27
2019-03-15T02:22:21.297Z,6.10
2019-03-15T02:24:50.000Z,4.97
2019-03-15T02:27:18.673Z,4.37
2019-03-15T02:29:47.379Z,4.40
2019-03-15T02:32:15.959Z,5.10
2019-03-15T02:34:44.626Z,5.00
2019-03-15T02:37:13.215Z,4.10
2019-03-15T02:39:42.017Z,4.70
2019-03-15T02:42:10.661Z,5.77
2019-03-15T02:44:39.537Z,4.80
2019-03-15T02:47:08.427Z,4.50
2019-03-15T02:49:37.446Z,4.37
2019-03-15T02:52:06.222Z,5.57
2019-03-15T02:54:34.912Z,3.80
2019-03-15T02:57:03.653Z,5.43
2019-03-15T02:59:32.314Z,4.57
2019-03-15T03:02:01.067Z,4.60
2019-03-15T03:04:29.674Z,3.73
2019-03-15T03:06:58.384Z,4.10
2019-03-15T03:09:27.121Z,4.03
2019-03-15T03:11:55.866Z,4.40
2019-03-15T03:14:24.652Z,4.73
2019-03-15T03:16:53.347Z,4.70
2019-03-15T03:19:22.212Z,5.30
2019-03-15T03:21:51.021Z,4.60
2019-03-15T03:24:19.684Z,6.53
2019-03-15T03:26:48.433Z,4.07
2019-03-15T03:29:17.198Z,4.80
2019-03-15T03:31:46.225Z,4.83
2019-03-15T03:34:15.232Z,4.60
2019-03-15T03:36:44.302Z,2.93
2019-03-15T03:39:12.969Z,4.60
2019-03-15T03:41:41.627Z,3.97
2019-03-15T03:44:10.258Z,4.97
2019-03-15T03:46:38.919Z,4.27
2019-03-15T03:49:07.657Z,4.93
2019-03-15T03:51:36.445Z,4.20
2019-03-15T03:54:05.368Z,4.27
2019-03-15T03:56:34.117Z,4.90
2019-03-15T03:59:02.994Z,4.67
2019-03-15T04:01:31.754Z,4.50
2019-03-15T04:04:00.530Z,4.30
2019-03-15T04:06:29.164Z,3.67
2019-03-15T04:08:57.858Z,3.53
2019-03-15T04:11:26.620Z,4.57
2019-03-15T04:13:55.363Z,5.27
2019-03-15T04:16:23.945Z,5.00
2019-03-15T04:18:52.690Z,4.53
2019-03-15T04:21:21.343Z,4.40
2019-03-15T04:23:50.201Z,5.00
2019-03-15T04:26:19.992Z,4.90
2019-03-15T04:28:48.655Z,4.33
2019-03-15T04:31:17.495Z,4.30
2019-03-15T04:33:46.320Z,5.10
2019-03-15T04:36:15.012Z,3.90
2019-03-15T04:38:43.850Z,5.73
2019-03-15T04:41:12.509Z,5.17
2019-03-15T04:43:41.303Z,4.90
2019-03-15T04:46:10.063Z,4.97
2019-03-15T04:48:38.740Z,4.83
2019-03-15T04:51:07.585Z,4.30
2019-03-15T04:53:36.248Z,4.90
2019-03-15T04:56:04.988Z,5.77
2019-03-15T04:58:33.654Z,5.77
2019-03-15T05:01:02.395Z,5.60
2019-03-15T05:03:31.251Z,5.70
2019-03-15T05:06:03.604Z,5.70
2019-03-15T05:08:30.443Z,5.03
2019-03-15T05:10:59.214Z,5.33
2019-03-15T05:13:27.903Z,5.27
2019-03-15T05:15:56.636Z,5.60
2019-03-15T05:18:25.400Z,5.37
2019-03-15T05:20:54.183Z,4.73
2019-03-15T05:23:23.346Z,4.43
2019-03-15T05:25:52.028Z,5.57
2019-03-15T05:28:20.684Z,4.33
2019-03-15T05:30:49.554Z,5.40
2019-03-15T05:33:18.310Z,4.63
2019-03-15T05:35:47.118Z,5.60
2019-03-15T05:38:15.834Z,5.57
2019-03-15T05:40:44.512Z,5.43
2019-03-15T05:43:13.247Z,5.37
2019-03-15T05:45:41.949Z,5.87
2019-03-15T05:48:10.626Z,4.60
2019-03-15T05:50:40.825Z,5.40
2019-03-15T05:53:09.703Z,5.70
2019-03-15T05:55:38.424Z,4.03
2019-03-15T05:58:07.125Z,5.70
2019-03-15T06:00:35.900Z,6.20
2019-03-15T06:03:04.642Z,5.00
2019-03-15T06:05:33.387Z,4.70
2019-03-15T06:08:02.027Z,4.60
2019-03-15T06:10:30.782Z,4.80
2019-03-15T06:12:59.508Z,4.93
2019-03-15T06:15:28.192Z,4.73
2019-03-15T06:17:57.003Z,5.10
2019-03-15T06:20:25.752Z,4.97
2019-03-15T06:22:54.585Z,3.70
2019-03-15T06:25:23.300Z,3.47
2019-03-15T06:27:51.996Z,3.50
2019-03-15T06:30:20.849Z,5.47
2019-03-15T06:32:49.532Z,3.83
2019-03-15T06:35:18.357Z,3.80
2019-03-15T06:37:47.168Z,3.73
2019-03-15T06:40:18.298Z,3.20
2019-03-15T06:42:47.036Z,4.77
2019-03-15T06:45:16.141Z,4.97
2019-03-15T06:47:44.867Z,4.27
2019-03-15T06:50:14.130Z,6.13
2019-03-15T06:52:44.056Z,5.00
2019-03-15T06:55:12.831Z,4.50
2019-03-15T06:57:41.457Z,4.90
2019-03-15T07:00:12.702Z,3.90
2019-03-15T07:02:41.608Z,4.40
2019-03-15T07:05:12.363Z,5.00
2019-03-15T07:07:41.115Z,4.27
2019-03-15T07:10:11.664Z,4.10
2019-03-15T07:12:40.856Z,4.77
2019-03-15T07:15:11.815Z,4.97
2019-03-15T07:17:41.662Z,4.70
2019-03-15T07:20:13.432Z,5.80
2019-03-15T07:22:42.203Z,6.10
2019-03-15T07:25:11.034Z,4.43
2019-03-15T07:27:42.553Z,6.10
2019-03-15T07:30:13.521Z,4.00
2019-03-15T07:32:42.308Z,4.93
2019-03-15T07:35:11.365Z,7.13
2019-03-15T07:37:40.153Z,6.43
2019-03-15T07:40:10.862Z,5.63
2019-03-15T07:42:39.624Z,5.83
2019-03-15T07:45:10.619Z,5.50
2019-03-15T07:47:39.379Z,5.97
2019-03-15T07:50:10.311Z,7.27
2019-03-15T07:52:39.090Z,5.90
2019-03-15T07:55:09.341Z,6.13
2019-03-15T07:57:37.983Z,6.17
2019-03-15T08:00:09.499Z,6.53
2019-03-15T08:02:38.189Z,5.63
2019-03-15T08:05:08.362Z,6.43
2019-03-15T08:07:44.326Z,6.33
2019-03-15T08:10:09.828Z,5.30
2019-03-15T08:12:38.963Z,5.37
2019-03-15T08:15:10.186Z,5.40
2019-03-15T08:17:38.913Z,5.27
2019-03-15T08:20:10.499Z,5.27
2019-03-15T08:22:39.297Z,4.70
2019-03-15T08:25:10.510Z,4.40
2019-03-15T08:27:39.290Z,3.67
2019-03-15T08:30:11.065Z,4.00
2019-03-15T08:32:43.135Z,3.97
2019-03-15T08:35:11.223Z,4.50
2019-03-15T08:37:40.166Z,4.87
2019-03-15T08:40:10.900Z,6.00
2019-03-15T08:42:39.705Z,5.23
2019-03-15T08:45:11.629Z,4.53
2019-03-15T08:47:40.400Z,6.33
2019-03-15T08:50:14.706Z,5.40
2019-03-15T08:52:42.466Z,5.70
2019-03-15T08:55:12.684Z,5.97
2019-03-15T08:57:41.684Z,6.47
2019-03-15T09:00:12.724Z,7.63
2019-03-15T09:02:41.427Z,7.43
2019-03-15T09:05:12.025Z,7.97
2019-03-15T09:07:40.737Z,7.30
2019-03-15T09:10:22.572Z,7.63
2019-03-15T09:12:42.591Z,6.90
2019-03-15T09:15:12.678Z,7.30
2019-03-15T09:17:41.501Z,7.20
2019-03-15T09:20:13.844Z,5.97
2019-03-15T09:22:42.642Z,6.53
2019-03-15T09:25:19.312Z,7.60
2019-03-15T09:27:45.551Z,6.80
2019-03-15T09:30:23.081Z,7.63
2019-03-15T09:32:46.218Z,7.90
2019-03-15T09:35:15.115Z,7.47
2019-03-15T09:37:47.028Z,6.53
2019-03-15T09:40:15.738Z,6.07
2019-03-15T09:42:44.494Z,5.27
2019-03-15T09:45:16.038Z,5.63
2019-03-15T09:47:44.802Z,5.23
2019-03-15T09:50:23.172Z,5.03
2019-03-15T09:52:45.046Z,5.80
2019-03-15T09:55:14.751Z,5.10
2019-03-15T09:57:43.537Z,5.27
2019-03-15T10:00:14.796Z,3.87
2019-03-15T10:02:43.754Z,4.30
2019-03-15T10:05:12.827Z,4.50
2019-03-15T10:07:43.783Z,4.30
2019-03-15T10:10:18.363Z,3.80
2019-03-15T10:12:48.873Z,4.13
2019-03-15T10:15:18.265Z,4.60
2019-03-15T10:17:47.592Z,4.20
2019-03-15T10:20:16.740Z,4.40
2019-03-15T10:22:45.486Z,4.27
2019-03-15T10:25:15.259Z,4.60
2019-03-15T10:27:44.218Z,4.20
2019-03-15T10:30:15.826Z,3.40
2019-03-15T10:32:44.577Z,4.27
2019-03-15T10:35:14.533Z,4.67
2019-03-15T10:37:43.389Z,4.50
2019-03-15T10:40:15.446Z,4.87
2019-03-15T10:42:44.213Z,6.17
2019-03-15T10:45:12.908Z,5.80
2019-03-15T10:47:42.583Z,6.03
2019-03-15T10:50:14.400Z,7.10
2019-03-15T10:52:43.115Z,6.67
2019-03-15T10:55:12.098Z,6.70
2019-03-15T10:57:40.865Z,7.73
2019-03-15T11:00:12.464Z,7.67
2019-03-15T11:02:41.284Z,7.80
2019-03-15T11:05:10.790Z,7.47
2019-03-15T11:07:39.679Z,8.90
2019-03-15T11:10:10.430Z,8.10
2019-03-15T11:12:39.272Z,8.07
2019-03-15T11:15:13.278Z,9.13
2019-03-15T11:17:42.057Z,8.73
2019-03-15T11:20:11.802Z,8.63
2019-03-15T11:22:40.518Z,10.43
2019-03-15T11:25:10.664Z,11.10
2019-03-15T11:27:39.478Z,12.80
2019-03-15T11:30:10.880Z,13.80
2019-03-15T11:32:39.766Z,12.50
2019-03-15T11:35:10.271Z,12.90
2019-03-15T11:37:39.316Z,15.07
2019-03-15T11:40:13.873Z,15.07
2019-03-15T11:42:41.460Z,15.80
2019-03-15T11:45:11.094Z,13.67
2019-03-15T11:48:00.745Z,15.57
2019-03-15T11:50:13.278Z,13.57
2019-03-15T11:52:42.008Z,13.80
2019-03-15T11:55:11.215Z,12.00
2019-03-15T11:57:39.868Z,12.47
2019-03-15T12:00:11.629Z,13.20
2019-03-15T12:02:40.407Z,10.60
2019-03-15T12:05:09.430Z,10.60
2019-03-15T12:07:38.271Z,9.53
2019-03-15T12:10:10.648Z,9.13
2019-03-15T12:12:39.411Z,9.77
2019-03-15T12:15:10.641Z,9.90
2019-03-15T12:17:39.393Z,8.93
2019-03-15T12:20:10.118Z,8.77
2019-03-15T12:22:38.870Z,8.70
2019-03-15T12:25:09.462Z,8.40
2019-03-15T12:27:38.111Z,7.60
2019-03-15T12:30:10.025Z,8.30
2019-03-15T12:32:38.834Z,6.97
2019-03-15T12:35:10.045Z,6.20
2019-03-15T12:37:38.782Z,7.10
2019-03-15T12:40:10.329Z,7.07
2019-03-15T12:42:39.192Z,6.73
2019-03-15T12:45:10.282Z,6.63
2019-03-15T12:47:39.065Z,6.53
2019-03-15T12:50:10.413Z,6.70
2019-03-15T12:52:47.252Z,7.47
2019-03-15T12:55:11.407Z,7.40
2019-03-15T12:57:40.352Z,8.53
2019-03-15T13:00:11.914Z,7.77
2019-03-15T13:02:40.700Z,8.70
2019-03-15T13:05:09.666Z,9.50
2019-03-15T13:07:38.368Z,8.83
2019-03-15T13:10:10.558Z,10.57
2019-03-15T13:12:39.236Z,11.40
2019-03-15T13:15:10.784Z,11.53
2019-03-15T13:17:39.751Z,11.80
2019-03-15T13:20:11.079Z,11.80
2019-03-15T13:22:39.918Z,12.27
2019-03-15T13:25:10.360Z,12.63
2019-03-15T13:27:39.116Z,10.40
2019-03-15T13:30:10.445Z,11.30
2019-03-15T13:32:39.172Z,11.03
2019-03-15T13:35:08.822Z,11.10
2019-03-15T13:37:37.656Z,9.20
2019-03-15T13:40:09.216Z,11.20
2019-03-15T13:42:37.936Z,11.03
2019-03-15T13:45:09.518Z,11.33
2019-03-15T13:47:38.241Z,11.37
2019-03-15T13:50:10.337Z,13.87
2019-03-15T13:52:39.071Z,14.07
2019-03-15T13:55:08.019Z,11.67
2019-03-15T13:57:36.809Z,11.50
2019-03-15T14:00:08.410Z,10.10
2019-03-15T14:02:37.295Z,9.90
2019-03-15T14:05:07.667Z,8.73
2019-03-15T14:07:36.443Z,9.43
2019-03-15T14:10:08.072Z,8.70
2019-03-15T14:12:36.937Z,8.90
2019-03-15T14:15:08.487Z,8.20
2019-03-15T14:17:37.240Z,9.77
2019-03-15T14:20:09.135Z,8.70
2019-03-15T14:22:37.885Z,7.60
2019-03-15T14:25:09.591Z,7.70
2019-03-15T14:27:38.457Z,9.90
2019-03-15T14:30:10.375Z,8.53
2019-03-15T14:32:39.150Z,7.80
2019-03-15T14:35:09.214Z,5.77
2019-03-15T14:37:38.214Z,5.00
2019-03-15T14:40:09.496Z,5.37
2019-03-15T14:42:38.472Z,5.87
2019-03-15T14:45:10.114Z,8.50
2019-03-15T14:47:39.110Z,9.07
2019-03-15T14:50:09.620Z,12.20
2019-03-15T14:52:38.632Z,11.93
2019-03-15T14:55:09.853Z,12.63
2019-03-15T14:57:51.404Z,12.00
2019-03-15T15:00:12.346Z,16.30
2019-03-15T15:02:42.417Z,19.27
2019-03-15T15:05:12.327Z,15.07
2019-03-15T15:07:41.349Z,16.70
2019-03-15T15:10:13.003Z,14.63
2019-03-15T15:12:41.754Z,15.30
2019-03-15T15:15:12.654Z,14.73
2019-03-15T15:17:41.392Z,14.90
2019-03-15T15:20:11.708Z,12.93
2019-03-15T15:22:40.553Z,12.83
2019-03-15T15:25:11.292Z,12.83
2019-03-15T15:27:40.044Z,11.57
2019-03-15T15:30:12.152Z,11.40
2019-03-15T15:32:40.909Z,11.93
2019-03-15T15:35:11.465Z,11.00
2019-03-15T15:37:40.413Z,10.40
2019-03-15T15:40:12.425Z,12.53
2019-03-15T15:42:41.089Z,12.60
2019-03-15T15:45:11.709Z,13.20
2019-03-15T15:47:40.473Z,12.60
2019-03-15T15:50:11.752Z,13.63
2019-03-15T15:52:40.544Z,14.00
2019-03-15T15:55:11.159Z,12.77
2019-03-15T15:57:39.994Z,13.87
2019-03-15T16:00:11.600Z,12.83
2019-03-15T16:02:42.481Z,12.33
2019-03-15T16:05:11.418Z,14.20
2019-03-15T16:07:40.124Z,12.50
2019-03-15T16:10:11.662Z,13.83
2019-03-15T16:12:40.455Z,12.00
2019-03-15T16:15:11.758Z,11.50
2019-03-15T16:17:40.491Z,11.43
2019-03-15T16:20:10.647Z,11.47
2019-03-15T16:22:39.485Z,8.70
2019-03-15T16:25:09.731Z,4.13
2019-03-15T16:27:38.571Z,6.33
2019-03-15T16:30:10.224Z,4.00
2019-03-15T16:32:39.013Z,4.27
2019-03-15T16:35:10.267Z,4.77
2019-03-15T16:37:38.985Z,4.90
2019-03-15T16:40:11.172Z,5.50
2019-03-15T16:42:39.947Z,6.33
2019-03-15T16:45:14.969Z,6.70
2019-03-15T16:47:42.369Z,7.47
2019-03-15T16:50:12.966Z,6.90
2019-03-15T16:52:41.726Z,7.13
2019-03-15T16:55:11.973Z,3.60
2019-03-15T16:57:40.865Z,3.60
2019-03-15T17:00:12.064Z,3.60
2019-03-15T17:02:40.829Z,3.17
2019-03-15T17:05:11.270Z,4.17
2019-03-15T17:07:39.996Z,3.57
2019-03-15T17:10:11.014Z,3.83
2019-03-15T17:12:39.826Z,2.80
2019-03-15T17:15:11.713Z,2.63
2019-03-15T17:17:40.688Z,3.87
2019-03-15T17:20:11.118Z,4.00
2019-03-15T17:22:39.931Z,5.53
2019-03-15T17:25:10.674Z,3.60
2019-03-15T17:27:39.641Z,3.63
2019-03-15T17:30:11.545Z,3.50
2019-03-15T17:32:40.339Z,3.37
2019-03-15T17:35:11.611Z,2.50
2019-03-15T17:37:40.417Z,3.37
2019-03-15T17:40:11.964Z,3.37
2019-03-15T17:42:40.754Z,3.10
2019-03-15T17:45:10.372Z,2.80
2019-03-15T17:47:39.273Z,2.77
2019-03-15T17:50:10.840Z,4.47
2019-03-15T17:52:39.603Z,4.03
2019-03-15T17:55:08.849Z,3.20
2019-03-15T17:57:37.638Z,3.60
2019-03-15T18:00:09.191Z,3.97
2019-03-15T18:02:37.955Z,3.93
2019-03-15T18:05:08.758Z,3.50
2019-03-15T18:07:37.610Z,3.43
2019-03-15T18:10:07.567Z,4.57
2019-03-15T18:12:36.427Z,3.20
2019-03-15T18:15:07.128Z,4.10
2019-03-15T18:17:35.961Z,3.30
2019-03-15T18:20:06.581Z,2.77
2019-03-15T18:22:35.292Z,4.67
2019-03-15T18:25:05.851Z,3.53
2019-03-15T18:27:34.642Z,3.23
2019-03-15T18:30:05.053Z,3.10
2019-03-15T18:32:33.875Z,3.77
2019-03-15T18:35:02.624Z,3.53
2019-03-15T18:37:31.397Z,3.73
2019-03-15T18:40:00.716Z,3.70
2019-03-15T18:42:29.541Z,3.27
2019-03-15T18:44:58.256Z,4.30
2019-03-15T18:47:27.019Z,4.13
2019-03-15T18:49:56.171Z,4.47
2019-03-15T18:52:25.893Z,3.83
2019-03-15T18:54:54.700Z,4.40
2019-03-15T18:57:23.569Z,4.47
2019-03-15T18:59:52.300Z,3.57
2019-03-15T19:02:25.443Z,4.40
2019-03-15T19:04:54.205Z,4.40
2019-03-15T19:07:22.937Z,3.80
2019-03-15T19:09:51.840Z,3.27
2019-03-15T19:12:20.684Z,4.57
2019-03-15T19:14:49.430Z,5.47
2019-03-15T19:17:18.258Z,3.67
2019-03-15T19:19:47.002Z,4.10
2019-03-15T19:22:15.820Z,4.13
2019-03-15T19:24:45.773Z,3.57
2019-03-15T19:27:14.649Z,3.60
2019-03-15T19:29:52.982Z,3.43
2019-03-15T19:32:13.912Z,2.80
2019-03-15T19:34:42.619Z,4.47
2019-03-15T19:37:11.421Z,4.07
2019-03-15T19:39:40.174Z,4.50
2019-03-15T19:42:09.037Z,3.63
2019-03-15T19:44:37.734Z,5.00
2019-03-15T19:47:06.462Z,3.90
2019-03-15T19:49:35.299Z,4.90
2019-03-15T19:52:04.157Z,4.60
2019-03-15T19:54:32.941Z,4.30
2019-03-15T19:57:01.704Z,4.50
2019-03-15T19:59:30.553Z,4.50
2019-03-15T20:01:59.337Z,5.00
2019-03-15T20:04:28.062Z,4.63
2019-03-15T20:06:56.823Z,5.13
2019-03-15T20:09:25.573Z,4.10
2019-03-15T20:11:54.376Z,4.23
2019-03-15T20:14:23.086Z,3.67
2019-03-15T20:16:51.788Z,5.10
2019-03-15T20:19:20.534Z,3.97
2019-03-15T20:21:49.324Z,3.40
2019-03-15T20:24:18.099Z,4.40
2019-03-15T20:26:46.832Z,4.53
2019-03-15T20:29:16.506Z,3.40
2019-03-15T20:31:45.223Z,3.43
2019-03-15T20:34:14.057Z,5.27
2019-03-15T20:36:42.822Z,3.23
2019-03-15T20:39:11.647Z,3.70
2019-03-15T20:41:40.678Z,5.00
2019-03-15T20:44:09.564Z,3.20
2019-03-15T20:46:44.398Z,3.63
2019-03-15T20:49:13.175Z,3.57
2019-03-15T20:51:41.948Z,3.23
2019-03-15T20:54:10.650Z,3.10
2019-03-15T20:56:39.453Z,3.37
2019-03-15T20:59:18.935Z,3.50
2019-03-15T21:01:48.986Z,3.40
2019-03-15T21:04:18.071Z,3.03
2019-03-15T21:06:46.853Z,3.03
2019-03-15T21:09:15.714Z,2.93
2019-03-15T21:11:44.558Z,2.73
2019-03-15T21:14:13.274Z,3.23
2019-03-15T21:16:42.071Z,3.63
2019-03-15T21:19:10.975Z,3.70
2019-03-15T21:21:39.767Z,3.47
2019-03-15T21:24:08.533Z,3.87
2019-03-15T21:26:37.283Z,4.07
2019-03-15T21:29:06.053Z,4.30
2019-03-15T21:31:34.917Z,3.03
2019-03-15T21:34:03.747Z,3.00
2019-03-15T21:36:32.481Z,2.70
2019-03-15T21:39:01.322Z,3.50
2019-03-15T21:41:30.010Z,3.20
2019-03-15T21:43:58.733Z,3.90
2019-03-15T21:46:27.515Z,3.00
2019-03-15T21:48:56.363Z,3.60
2019-03-15T21:51:25.145Z,2.77
2019-03-15T21:53:53.900Z,3.43
2019-03-15T21:56:22.731Z,3.20
2019-03-15T21:58:51.471Z,4.97
2019-03-15T22:01:20.283Z,3.60
2019-03-15T22:03:49.101Z,3.27
2019-03-15T22:06:17.902Z,4.07
2019-03-15T22:08:47.998Z,3.53
2019-03-15T22:11:21.422Z,3.40
2019-03-15T22:13:47.176Z,3.40
2019-03-15T22:16:15.955Z,3.53
2019-03-15T22:18:46.338Z,3.70
2019-03-15T22:21:15.129Z,3.83
2019-03-15T22:23:43.854Z,3.57
2019-03-15T22:26:12.652Z,3.80
2019-03-15T22:28:41.538Z,2.60
2019-03-15T22:31:16.464Z,2.93
2019-03-15T22:33:41.005Z,4.07
2019-03-15T22:36:09.795Z,3.00
2019-03-15T22:38:38.709Z,3.17
2019-03-15T22:41:07.417Z,3.33
2019-03-15T22:43:39.407Z,4.67
2019-03-15T22:46:08.186Z,3.00
2019-03-15T22:48:37.068Z,2.50
2019-03-15T22:51:05.864Z,3.10
2019-03-15T22:53:34.554Z,2.30
2019-03-15T22:56:03.324Z,2.90
2019-03-15T22:58:32.076Z,2.63
2019-03-15T23:01:00.935Z,2.50
2019-03-15T23:03:29.666Z,2.53
2019-03-15T23:05:58.494Z,2.57
2019-03-15T23:08:27.274Z,2.20
2019-03-15T23:10:56.145Z,1.80
2019-03-15T23:13:24.857Z,2.70
2019-03-15T23:15:53.602Z,3.10
2019-03-15T23:18:22.376Z,2.33
2019-03-15T23:20:51.202Z,3.10
2019-03-15T23:23:24.103Z,1.97
2019-03-15T23:25:51.704Z,2.60
2019-03-15T23:28:20.619Z,1.53
2019-03-15T23:30:49.414Z,2.40
2019-03-15T23:33:18.085Z,2.60
2019-03-15T23:35:53.952Z,3.03
2019-03-15T23:38:17.272Z,2.47
2019-03-15T23:40:45.991Z,2.60
2019-03-15T23:43:15.066Z,3.10
2019-03-15T23:45:43.907Z,2.53
2019-03-15T23:48:12.513Z,3.20
2019-03-15T23:50:41.247Z,2.40
2019-03-15T23:53:10.081Z,2.20
2019-03-15T23:55:38.822Z,2.40
2019-03-15T23:58:07.545Z,2.80
